Time;durP1;ratioP1;P1;durP2;ratioP2;P2;SDS_P1;SDS_P2;PMS_P1;PMS_P2;Temp;Humidity;BMP_temperature;BMP_pressure;BME280_temperature;BME280_humidity;BME280_pressure;Samples;Min_cycle;Max_cycle;Signal;HPM_P1;HPM_P2
2022/03/31 00:02:35;;;;;;;1.52;0.95;;;;;;;4.02;100.00;100029.13;6262802;28;20057;-78
2022/03/31 00:05:37;;;;;;;1.88;0.90;;;;;;;3.99;100.00;100026.63;6260962;28;20057;-79
2022/03/31 00:08:39;;;;;;;0.95;0.82;;;;;;;3.93;100.00;100021.69;6260577;28;20071;-78
2022/03/31 00:11:40;;;;;;;0.98;0.82;;;;;;;3.87;100.00;100023.69;6258545;28;20053;-78
2022/03/31 00:14:43;;;;;;;1.63;1.40;;;;;;;3.87;100.00;100019.31;6258882;28;20057;-78
2022/03/31 00:17:44;;;;;;;2.20;0.70;;;;;;;3.87;100.00;100021.09;6260350;28;20492;-78
2022/03/31 00:20:46;;;;;;;0.90;0.60;;;;;;;3.87;100.00;100016.72;6262683;28;20053;-78
2022/03/31 00:23:47;;;;;;;1.10;0.85;;;;;;;3.89;100.00;100009.69;6260798;28;20556;-75
2022/03/31 00:26:48;;;;;;;3.60;2.60;;;;;;;3.86;100.00;100003.75;6262495;28;20061;-76
2022/03/31 00:29:51;;;;;;;1.80;1.00;;;;;;;3.85;100.00;100002.91;6259531;28;20056;-76
2022/03/31 00:32:53;;;;;;;4.15;1.30;;;;;;;3.88;100.00;100001.97;6257816;28;20041;-76
2022/03/31 00:35:54;;;;;;;0.90;0.60;;;;;;;3.89;100.00;100003.66;6258604;28;20068;-76
2022/03/31 00:42:15;;;;;;;1.65;1.25;;;;;;;3.85;100.00;99999.47;6259693;28;20057;-76
2022/03/31 00:45:20;;;;;;;2.25;1.27;;;;;;;3.87;100.00;99997.69;6258493;28;20420;-75
2022/03/31 00:48:22;;;;;;;3.28;1.38;;;;;;;3.90;100.00;100002.75;6258398;28;20076;-76
2022/03/31 00:51:23;;;;;;;1.27;0.90;;;;;;;3.92;100.00;99993.16;6257735;28;20065;-77
2022/03/31 00:54:26;;;;;;;0.45;0.45;;;;;;;3.88;100.00;99995.03;6259156;28;20052;-77
2022/03/31 00:57:29;;;;;;;0.93;0.65;;;;;;;3.88;100.00;99991.56;6258526;28;20535;-77
2022/03/31 01:00:31;;;;;;;1.50;0.90;;;;;;;3.89;100.00;99988.06;6259071;28;20441;-77
2022/03/31 01:03:35;;;;;;;1.85;1.08;;;;;;;3.86;100.00;99988.16;6257494;28;20049;-77
2022/03/31 01:06:37;;;;;;;1.20;0.77;;;;;;;3.85;100.00;99981.28;6258612;28;20052;-77
2022/03/31 01:09:38;;;;;;;1.60;0.85;;;;;;;3.89;100.00;99978.50;6257705;28;20048;-76
2022/03/31 01:12:40;;;;;;;1.75;0.70;;;;;;;3.81;100.00;99973.63;6257906;28;20057;-77
2022/03/31 01:15:42;;;;;;;1.75;0.88;;;;;;;3.77;100.00;99969.44;6257918;28;20057;-77
2022/03/31 01:18:44;;;;;;;2.50;1.30;;;;;;;3.75;100.00;99966.03;6258394;28;20489;-75
2022/03/31 01:21:46;;;;;;;9.68;0.98;;;;;;;3.78;100.00;99963.34;6255384;28;20052;-75
2022/03/31 01:24:49;;;;;;;2.28;1.10;;;;;;;3.76;100.00;99956.50;6254761;28;20055;-76
2022/03/31 01:27:51;;;;;;;1.50;0.80;;;;;;;3.79;100.00;99957.22;6257708;28;20053;-76
2022/03/31 01:30:52;;;;;;;2.10;1.20;;;;;;;3.83;100.00;99951.94;6255921;28;20045;-76
2022/03/31 01:33:54;;;;;;;0.95;0.90;;;;;;;3.85;100.00;99953.53;6255747;28;20064;-76
2022/03/31 01:36:55;;;;;;;2.38;0.90;;;;;;;3.86;100.00;99954.38;6256308;28;20058;-76
2022/03/31 01:39:59;;;;;;;2.05;1.00;;;;;;;3.81;100.00;99950.25;6256256;28;20053;-75
2022/03/31 01:43:02;;;;;;;1.92;1.10;;;;;;;3.77;100.00;99951.25;6255037;28;20053;-75
2022/03/31 01:46:03;;;;;;;2.50;1.13;;;;;;;3.79;100.00;99949.44;6256808;28;20155;-77
2022/03/31 01:49:05;;;;;;;5.05;1.20;;;;;;;3.87;100.00;99941.34;6257727;28;20060;-76
2022/03/31 01:52:07;;;;;;;1.50;1.17;;;;;;;3.77;100.00;99940.88;6253622;28;20053;-76
2022/03/31 01:55:10;;;;;;;2.28;1.00;;;;;;;3.78;100.00;99941.72;6256419;28;20055;-77
2022/03/31 01:58:12;;;;;;;1.55;0.93;;;;;;;3.84;100.00;99931.06;6256920;28;20052;-76
2022/03/31 02:01:13;;;;;;;4.35;1.13;;;;;;;3.89;100.00;99934.31;6256830;28;20038;-77
2022/03/31 02:04:15;;;;;;;1.63;1.15;;;;;;;3.88;100.00;99932.66;6258712;28;20041;-76
2022/03/31 02:07:16;;;;;;;1.33;1.20;;;;;;;3.89;100.00;99930.88;6256841;28;20119;-76
2022/03/31 02:10:19;;;;;;;1.85;0.82;;;;;;;3.80;100.00;99925.13;6256225;28;20053;-76
2022/03/31 02:13:20;;;;;;;4.45;2.55;;;;;;;3.82;100.00;99927.69;6257384;28;20049;-77
2022/03/31 02:16:22;;;;;;;2.38;0.82;;;;;;;3.83;100.00;99926.78;6257204;28;20045;-77
2022/03/31 02:19:24;;;;;;;4.72;1.45;;;;;;;3.79;100.00;99927.81;6255952;28;20060;-76
2022/03/31 02:22:25;;;;;;;3.33;1.52;;;;;;;3.67;100.00;99925.66;6256909;28;21008;-77
2022/03/31 02:25:28;;;;;;;6.85;1.42;;;;;;;3.56;100.00;99929.53;6257270;28;20049;-77
2022/03/31 02:28:30;;;;;;;1.05;1.02;;;;;;;3.55;100.00;99930.44;6257566;28;20086;-76
2022/03/31 02:31:31;;;;;;;2.63;1.20;;;;;;;3.52;100.00;99933.13;6255311;28;20057;-77
2022/03/31 02:34:32;;;;;;;2.05;1.33;;;;;;;3.46;100.00;99928.19;6259049;28;20062;-77
2022/03/31 02:37:35;;;;;;;1.90;1.17;;;;;;;3.38;100.00;99932.81;6257298;28;20049;-77
2022/03/31 02:40:38;;;;;;;1.08;0.95;;;;;;;3.22;100.00;99929.91;6258137;28;20555;-77
2022/03/31 02:43:39;;;;;;;0.95;0.82;;;;;;;3.25;100.00;99936.75;6257408;28;20045;-77
2022/03/31 02:46:41;;;;;;;1.13;0.95;;;;;;;3.27;100.00;99930.63;6254967;28;20053;-77
2022/03/31 02:49:43;;;;;;;2.63;1.25;;;;;;;3.33;100.00;99929.53;6256196;28;20052;-76
2022/03/31 02:56:06;;;;;;;1.52;1.20;;;;;;;3.29;100.00;99920.16;6257800;28;20073;-78
2022/03/31 02:59:08;;;;;;;1.13;1.02;;;;;;;3.24;100.00;99924.69;6257489;28;20462;-76
2022/03/31 03:02:09;;;;;;;6.65;1.83;;;;;;;3.16;100.00;99914.56;6259135;28;20045;-77
2022/03/31 03:05:11;;;;;;;1.90;1.63;;;;;;;3.11;100.00;99913.91;6261590;28;20057;-77
2022/03/31 03:08:15;;;;;;;2.40;1.77;;;;;;;3.12;100.00;99919.94;6262848;28;20060;-77
2022/03/31 03:11:18;;;;;;;6.25;1.35;;;;;;;3.06;100.00;99918.41;6263632;28;20049;-76
2022/03/31 03:14:21;;;;;;;3.20;1.67;;;;;;;3.02;100.00;99915.06;6264869;28;20049;-77
2022/03/31 03:17:22;;;;;;;1.48;1.15;;;;;;;2.98;100.00;99917.81;6263404;28;20048;-76
2022/03/31 03:20:25;;;;;;;10.98;1.73;;;;;;;2.88;100.00;99919.91;6262178;28;20046;-77
2022/03/31 03:23:26;;;;;;;2.75;1.17;;;;;;;2.86;100.00;99920.84;6262032;28;20144;-76
2022/03/31 03:26:29;;;;;;;3.47;1.50;;;;;;;2.83;100.00;99923.56;6260561;28;20050;-76
2022/03/31 03:29:30;;;;;;;1.60;1.27;;;;;;;2.72;100.00;99919.56;6261635;28;20056;-74
2022/03/31 03:32:31;;;;;;;3.53;1.60;;;;;;;2.72;100.00;99916.13;6257278;28;20060;-73
2022/03/31 03:35:33;;;;;;;1.98;1.42;;;;;;;2.72;100.00;99916.13;6259558;28;20045;-76
2022/03/31 03:38:34;;;;;;;2.55;1.70;;;;;;;2.70;100.00;99918.78;6260958;28;20052;-76
2022/03/31 03:41:37;;;;;;;1.80;0.88;;;;;;;2.71;100.00;99912.69;6258582;28;20041;-76
2022/03/31 03:44:38;;;;;;;0.75;0.75;;;;;;;2.73;100.00;99915.25;6259864;28;20055;-77
2022/03/31 03:47:40;;;;;;;1.23;1.02;;;;;;;2.72;100.00;99916.97;6262737;28;20055;-77
2022/03/31 03:50:42;;;;;;;3.33;1.58;;;;;;;2.69;100.00;99911.91;6261574;28;20041;-76
2022/03/31 03:53:43;;;;;;;4.18;1.45;;;;;;;2.69;100.00;99916.25;6262276;28;20060;-77
2022/03/31 03:56:46;;;;;;;2.20;1.02;;;;;;;2.68;100.00;99911.94;6261142;28;20049;-76
2022/03/31 03:59:47;;;;;;;1.92;1.20;;;;;;;2.68;100.00;99914.53;6264066;28;20083;-76
2022/03/31 04:02:48;;;;;;;2.28;1.33;;;;;;;2.61;100.00;99907.88;6261361;28;20131;-77
2022/03/31 04:05:50;;;;;;;4.47;1.50;;;;;;;2.52;100.00;99909.03;6260283;28;20054;-76
2022/03/31 04:08:51;;;;;;;2.42;1.52;;;;;;;2.50;100.00;99913.44;6258919;28;20041;-76
2022/03/31 04:11:54;;;;;;;4.70;1.35;;;;;;;2.54;100.00;99910.69;6256147;28;20041;-75
2022/03/31 04:14:56;;;;;;;2.08;1.80;;;;;;;2.59;100.00;99904.47;6257947;28;20045;-77
2022/03/31 04:17:57;;;;;;;1.52;0.70;;;;;;;2.63;100.00;99908.66;6256550;28;20064;-76
2022/03/31 04:21:01;;;;;;;3.33;1.60;;;;;;;2.56;100.00;99902.00;6256463;28;20693;-77
2022/03/31 04:24:02;;;;;;;1.17;0.88;;;;;;;2.54;100.00;99899.44;6255011;28;20065;-75
2022/03/31 04:27:05;;;;;;;2.55;1.17;;;;;;;2.60;100.00;99903.59;6256690;28;20049;-77
2022/03/31 04:30:09;;;;;;;2.13;1.25;;;;;;;2.62;100.00;99910.41;6255932;28;20057;-76
2022/03/31 04:33:10;;;;;;;1.73;1.10;;;;;;;2.60;100.00;99903.59;6256881;28;20053;-76
2022/03/31 04:36:12;;;;;;;2.65;1.17;;;;;;;2.53;100.00;99902.94;6255451;28;20052;-76
2022/03/31 04:39:14;;;;;;;3.25;1.55;;;;;;;2.56;100.00;99904.59;6254973;28;20053;-76
2022/03/31 04:42:17;;;;;;;0.95;0.88;;;;;;;2.63;100.00;99903.47;6257156;28;20454;-77
2022/03/31 04:45:19;;;;;;;2.70;1.65;;;;;;;2.71;100.00;99907.50;6256989;28;20049;-77
2022/03/31 04:48:20;;;;;;;2.97;1.65;;;;;;;2.72;100.00;99913.53;6255010;28;20044;-77
2022/03/31 04:51:21;;;;;;;2.40;1.40;;;;;;;2.71;100.00;99909.25;6255329;28;20064;-75
2022/03/31 04:54:23;;;;;;;3.22;1.65;;;;;;;2.69;100.00;99909.31;6255492;28;20041;-76
2022/03/31 04:57:25;;;;;;;2.50;1.60;;;;;;;2.70;100.00;99912.75;6256391;28;20070;-76
2022/03/31 05:00:27;;;;;;;2.88;1.60;;;;;;;2.73;100.00;99910.06;6254823;28;20048;-77
2022/03/31 05:03:28;;;;;;;5.05;2.60;;;;;;;2.66;100.00;99909.41;6259122;28;20053;-77
2022/03/31 05:06:29;;;;;;;3.65;2.70;;;;;;;2.69;100.00;99914.50;6258248;28;20049;-76
2022/03/31 05:09:31;;;;;;;2.20;1.50;;;;;;;2.72;100.00;99913.53;6256392;28;20052;-76
2022/03/31 05:12:33;;;;;;;5.32;1.83;;;;;;;2.69;100.00;99914.50;6264947;28;20049;-76
2022/03/31 05:15:35;;;;;;;3.38;1.33;;;;;;;2.69;100.00;99913.66;6287538;28;20053;-77
2022/03/31 05:18:36;;;;;;;5.63;2.00;;;;;;;2.74;100.00;99912.59;6280552;28;20040;-77
2022/03/31 05:21:37;;;;;;;3.85;2.05;;;;;;;2.76;100.00;99912.53;6269039;28;20052;-75
2022/03/31 05:24:39;;;;;;;4.28;2.95;;;;;;;2.73;100.00;99910.06;6282659;28;20075;-77
2022/03/31 05:27:43;;;;;;;3.72;2.10;;;;;;;2.68;100.00;99912.81;6276446;28;20052;-76
2022/03/31 05:30:44;;;;;;;4.65;2.28;;;;;;;2.71;100.00;99919.63;6272236;28;20041;-77
2022/03/31 05:33:46;;;;;;;9.13;2.35;;;;;;;2.74;100.00;99915.19;6274431;28;20508;-77
2022/03/31 05:36:47;;;;;;;4.88;2.80;;;;;;;2.70;100.00;99912.75;6280530;28;20044;-77
2022/03/31 05:39:48;;;;;;;2.42;1.45;;;;;;;2.76;100.00;99915.13;6284431;28;20056;-76
2022/03/31 05:42:51;;;;;;;4.57;2.45;;;;;;;2.75;100.00;99909.09;6279456;28;20036;-77
2022/03/31 05:45:53;;;;;;;2.42;1.77;;;;;;;2.82;100.00;99908.88;6273846;28;20397;-76
2022/03/31 05:48:54;;;;;;;5.72;2.67;;;;;;;2.89;100.00;99912.97;6286824;28;20044;-76
2022/03/31 05:51:55;;;;;;;10.95;2.63;;;;;;;2.84;100.00;99913.13;6276064;28;20492;-77
2022/03/31 05:54:57;;;;;;;2.17;1.90;;;;;;;2.82;100.00;99922.72;6288092;28;20048;-77
2022/03/31 05:58:00;;;;;;;5.13;2.08;;;;;;;2.83;100.00;99923.56;6292193;28;20052;-77
2022/03/31 06:01:01;;;;;;;3.72;2.30;;;;;;;2.85;100.00;99932.97;6275205;28;20045;-75
2022/03/31 06:04:02;;;;;;;4.75;2.83;;;;;;;2.91;100.00;99926.75;6278329;28;20045;-77
2022/03/31 06:07:05;;;;;;;4.25;2.60;;;;;;;2.92;100.00;99937.06;6285559;28;20056;-77
2022/03/31 06:10:07;;;;;;;4.53;2.30;;;;;;;2.90;100.00;99936.25;6287593;28;20518;-76
2022/03/31 06:13:10;;;;;;;7.15;3.25;;;;;;;2.90;100.00;99936.25;6295913;28;20052;-77
2022/03/31 06:16:12;;;;;;;5.22;2.92;;;;;;;2.89;100.00;99931.13;6295971;28;20045;-77
2022/03/31 06:19:13;;;;;;;7.93;2.70;;;;;;;2.94;100.00;99939.59;6295969;28;20499;-76
2022/03/31 06:22:14;;;;;;;5.95;2.72;;;;;;;2.92;100.00;99934.47;6282835;28;20052;-78
2022/03/31 06:25:16;;;;;;;9.20;3.35;;;;;;;2.97;100.00;99942.94;6273521;28;20056;-77
2022/03/31 06:28:19;;;;;;;5.47;3.47;;;;;;;2.98;100.00;99943.78;6273313;28;20049;-78
2022/03/31 06:31:22;;;;;;;6.25;3.55;;;;;;;3.04;100.00;99944.44;6274323;28;20045;-78
2022/03/31 06:34:24;;;;;;;9.45;3.88;;;;;;;3.10;100.00;99945.09;6275876;28;20053;-78
2022/03/31 06:37:25;;;;;;;12.85;5.28;;;;;;;3.13;100.00;99945.81;6273999;28;20064;-78
2022/03/31 06:40:27;;;;;;;9.32;5.22;;;;;;;3.21;100.00;99948.16;6275707;28;20060;-79
2022/03/31 06:43:30;;;;;;;5.03;3.58;;;;;;;3.19;100.00;99944.78;6286317;28;20048;-77
2022/03/31 06:46:31;;;;;;;10.07;4.22;;;;;;;3.22;100.00;99948.09;6277711;28;20056;-78
2022/03/31 06:49:34;;;;;;;9.45;5.38;;;;;;;3.21;100.00;99945.56;6278375;28;20056;-78
2022/03/31 06:52:35;;;;;;;11.32;5.07;;;;;;;3.25;100.00;99944.53;6276879;28;20045;-78
2022/03/31 06:55:37;;;;;;;9.38;5.05;;;;;;;3.29;100.00;99953.91;6277768;28;20060;-77
2022/03/31 06:58:39;;;;;;;11.35;5.47;;;;;;;3.38;100.00;99956.19;6277535;28;20049;-77
2022/03/31 07:01:41;;;;;;;10.40;5.38;;;;;;;3.35;100.00;99953.69;6276575;28;20182;-78
2022/03/31 07:04:42;;;;;;;8.77;4.88;;;;;;;3.40;100.00;99956.97;6277963;28;20646;-78
2022/03/31 07:07:44;;;;;;;7.85;4.10;;;;;;;3.57;100.00;99958.94;6277932;28;20134;-79
2022/03/31 07:10:45;;;;;;;11.07;5.68;;;;;;;3.48;100.00;99961.88;6277095;28;20049;-79
2022/03/31 07:13:49;;;;;;;11.27;4.55;;;;;;;3.49;100.00;99958.38;6277564;28;20049;-78
2022/03/31 07:16:51;;;;;;;11.23;5.65;;;;;;;3.62;100.00;99951.81;6271480;28;20056;-78
2022/03/31 07:19:52;;;;;;;17.55;6.97;;;;;;;3.54;100.00;99959.03;6258594;28;20049;-76
2022/03/31 07:22:54;;;;;;;13.57;5.38;;;;;;;3.60;100.00;99958.00;6257930;28;20056;-77
2022/03/31 07:25:56;;;;;;;13.23;6.78;;;;;;;3.60;100.00;99961.44;6261609;28;20048;-78
2022/03/31 07:28:59;;;;;;;17.00;6.07;;;;;;;3.66;100.00;99958.59;6276302;28;20407;-77
2022/03/31 07:32:00;;;;;;;13.13;5.07;;;;;;;3.65;100.00;99966.47;6283975;28;20045;-76
2022/03/31 07:35:02;;;;;;;11.23;4.80;;;;;;;3.67;100.00;99964.63;6274982;28;20064;-76
2022/03/31 07:38:07;;;;;;;10.95;4.88;;;;;;;3.61;100.00;99957.94;6274843;28;20056;-76
2022/03/31 07:41:09;;;;;;;10.38;4.53;;;;;;;3.59;100.00;99959.75;6274440;28;20110;-76
2022/03/31 07:44:11;;;;;;;8.27;3.88;;;;;;;3.64;100.00;99963.03;6283438;28;20059;-77
2022/03/31 07:47:13;;;;;;;10.52;4.40;;;;;;;3.60;100.00;99956.25;6277449;28;20496;-77
2022/03/31 07:50:16;;;;;;;8.68;4.35;;;;;;;3.58;100.00;99960.63;6274606;28;20059;-76
2022/03/31 07:53:17;;;;;;;11.20;4.95;;;;;;;3.59;100.00;99958.88;6273775;28;20481;-77
2022/03/31 07:56:19;;;;;;;9.73;4.05;;;;;;;3.60;100.00;99965.78;6274221;28;20390;-77
2022/03/31 07:59:25;;;;;;;12.10;4.72;;;;;;;3.73;100.00;99961.81;6274100;28;20053;-77
2022/03/31 08:02:27;;;;;;;10.10;4.95;;;;;;;3.68;100.00;99954.22;6248752;28;20057;-76
2022/03/31 08:05:29;;;;;;;11.70;5.85;;;;;;;3.67;100.00;99962.88;6250551;28;20053;-77
2022/03/31 08:08:31;;;;;;;13.73;5.63;;;;;;;3.72;100.00;99952.31;6249230;28;20057;-77
2022/03/31 08:11:33;;;;;;;11.93;5.93;;;;;;;3.73;100.00;99961.81;6268136;28;20048;-77
2022/03/31 08:14:35;;;;;;;7.90;4.60;;;;;;;3.74;100.00;99959.16;6275575;28;20053;-76
2022/03/31 08:17:38;;;;;;;7.30;3.90;;;;;;;3.67;100.00;99970.69;6276470;28;20519;-76
2022/03/31 08:20:39;;;;;;;5.30;2.55;;;;;;;3.66;100.00;99961.19;6275008;28;20059;-76
2022/03/31 08:23:41;;;;;;;9.70;3.92;;;;;;;3.73;100.00;99962.66;6275343;28;20060;-76
2022/03/31 08:26:43;;;;;;;5.10;2.88;;;;;;;3.80;100.00;99960.69;6276364;28;20045;-76
2022/03/31 08:29:45;;;;;;;5.55;3.38;;;;;;;3.90;100.00;99962.00;6277416;28;20056;-76
2022/03/31 08:32:47;;;;;;;4.28;2.63;;;;;;;4.13;100.00;99965.47;6276403;28;20051;-76
2022/03/31 08:35:49;;;;;;;6.28;2.75;;;;;;;4.11;100.00;99967.28;6257936;28;20049;-76
2022/03/31 08:38:50;;;;;;;6.68;2.83;;;;;;;4.20;100.00;99972.97;6265723;28;20053;-76
2022/03/31 08:41:52;;;;;;;4.90;2.97;;;;;;;4.32;100.00;99969.06;6273398;28;20075;-80
2022/03/31 08:44:57;;;;;;;4.88;2.85;;;;;;;4.39;100.00;99974.84;6273767;28;20044;-79
2022/03/31 08:48:00;;;;;;;7.07;2.95;;;;;;;4.46;100.00;99968.50;6275351;28;20045;-79
2022/03/31 08:51:02;;;;;;;9.25;4.10;;;;;;;4.55;100.00;99973.31;6273365;28;20056;-79
2022/03/31 08:54:04;;;;;;;5.25;2.80;;;;;;;4.54;100.00;99976.81;6274565;28;20041;-78
2022/03/31 08:57:06;;;;;;;4.85;2.80;;;;;;;4.67;100.00;99975.41;6273534;28;20398;-77
2022/03/31 09:00:12;;;;;;;4.28;3.13;;;;;;;4.75;100.00;99981.13;6273497;28;20064;-77
2022/03/31 09:03:14;;;;;;;7.70;3.58;;;;;;;4.81;100.00;99977.41;6271191;28;20044;-77
2022/03/31 09:06:22;;;;;;;7.85;3.75;;;;;;;4.86;100.00;99983.31;6272361;28;20496;-79
2022/03/31 09:09:23;;;;;;;5.60;2.97;;;;;;;4.71;100.00;99994.34;6270482;28;20059;-78
2022/03/31 09:12:26;;;;;;;5.13;3.08;;;;;;;5.02;100.00;99983.50;6271764;28;20045;-78
2022/03/31 09:15:30;;;;;;;6.22;3.42;;;;;;;4.97;100.00;99988.06;6272558;28;20068;-79
2022/03/31 09:18:33;;;;;;;5.20;2.75;;;;;;;4.95;100.00;99995.06;6271833;28;20080;-79
2022/03/31 09:21:35;;;;;;;5.10;2.50;;;;;;;5.13;100.00;99986.47;6271506;28;20049;-78
2022/03/31 09:24:37;;;;;;;5.32;3.00;;;;;;;5.05;100.00;99997.22;6272760;28;20045;-79
2022/03/31 09:27:38;;;;;;;6.65;3.60;;;;;;;5.20;100.00;99995.72;6271517;28;20052;-75
2022/03/31 09:30:49;;;;;;;11.60;4.43;;;;;;;5.14;100.00;99993.38;6273136;28;20416;-76
2022/03/31 09:33:55;;;;;;;6.03;3.30;;;;;;;5.21;100.00;99988.75;6281539;28;20044;-75
2022/03/31 09:36:56;;;;;;;5.43;3.45;;;;;;;5.34;100.00;99990.75;6280692;28;20060;-76
2022/03/31 09:39:58;;;;;;;6.32;3.45;;;;;;;5.33;100.00;99986.47;6271125;28;20419;-76
2022/03/31 09:43:00;;;;;;;9.23;3.03;;;;;;;5.62;100.00;99988.69;6271150;28;20516;-76
2022/03/31 09:46:03;;;;;;;7.70;3.17;;;;;;;5.60;100.00;99991.34;6271481;28;20523;-76
2022/03/31 09:49:13;;;;;;;10.70;3.35;;;;;;;5.74;100.00;99981.16;6284838;28;20407;-76
2022/03/31 09:52:15;;;;;;;8.82;3.60;;;;;;;5.66;100.00;99985.03;6295780;28;20052;-76
2022/03/31 09:55:18;;;;;;;6.47;3.08;;;;;;;5.83;100.00;99991.16;6296304;28;20055;-76
2022/03/31 09:58:21;;;;;;;8.05;4.22;;;;;;;5.83;99.38;99991.16;6297097;28;20048;-76
2022/03/31 10:01:24;;;;;;;9.57;4.00;;;;;;;5.57;99.33;99996.69;6294886;28;20512;-76
2022/03/31 10:04:26;;;;;;;10.20;4.03;;;;;;;5.81;100.00;99993.00;6279328;28;20044;-75
2022/03/31 10:07:30;;;;;;;8.15;4.00;;;;;;;5.62;98.19;99999.09;6270911;28;20500;-76
2022/03/31 10:10:33;;;;;;;15.27;4.88;;;;;;;6.08;99.04;99992.66;6270796;28;20090;-77
2022/03/31 10:13:43;;;;;;;11.57;4.30;;;;;;;5.93;96.78;99983.78;6270774;28;20044;-76
2022/03/31 10:16:47;;;;;;;;;;;;;;;5.90;99.23;99990.88;6276403;28;20069;-76
2022/03/31 10:19:48;;;;;;;8.10;3.42;;;;;;;5.83;99.82;99987.72;6275849;28;20283;-76
2022/03/31 10:26:25;;;;;;;8.52;3.67;;;;;;;6.10;99.02;99985.59;6275779;28;20069;-76
2022/03/31 10:29:40;;;;;;;7.43;3.58;;;;;;;6.06;97.85;99978.84;6275890;28;20147;-75
2022/03/31 10:32:54;;;;;;;5.72;3.53;;;;;;;5.87;96.73;99984.03;6275260;28;20428;-76
2022/03/31 10:36:03;;;;;;;6.43;3.55;;;;;;;6.05;93.34;99971.94;6295629;28;20056;-75
2022/03/31 10:39:08;;;;;;;11.27;3.63;;;;;;;6.06;97.15;99971.03;6300873;28;20415;-75
2022/03/31 10:42:09;;;;;;;4.35;2.83;;;;;;;5.93;97.54;99968.13;6299980;28;20045;-75
2022/03/31 10:45:13;;;;;;;10.05;3.67;;;;;;;6.06;99.80;99969.25;6300349;28;20059;-75
2022/03/31 10:48:19;;;;;;;12.23;3.60;;;;;;;6.31;96.27;99963.72;6300588;28;20052;-75
2022/03/31 10:51:32;;;;;;;5.55;2.90;;;;;;;6.33;94.19;99968.84;6299773;28;20059;-75
2022/03/31 10:54:33;;;;;;;5.50;2.55;;;;;;;6.56;91.64;99960.75;6300289;28;20059;-76
2022/03/31 10:57:41;;;;;;;4.55;2.42;;;;;;;6.79;87.97;99971.81;6299879;28;20074;-76
2022/03/31 11:00:42;;;;;;;6.30;2.40;;;;;;;6.64;88.20;99972.59;6299484;28;20131;-75
2022/03/31 11:03:46;;;;;;;5.00;2.28;;;;;;;6.67;91.16;99965.44;6300192;28;20049;-75
2022/03/31 11:06:48;;;;;;;3.80;2.35;;;;;;;6.67;91.08;99967.19;6300952;28;20688;-76
2022/03/31 11:10:00;;;;;;;5.38;2.40;;;;;;;6.88;85.61;99971.34;6300417;28;20048;-75
2022/03/31 11:13:03;;;;;;;6.55;2.42;;;;;;;6.64;86.73;99965.59;6290759;28;20052;-76
2022/03/31 11:16:06;;;;;;;4.10;2.50;;;;;;;6.86;85.51;99960.16;6275199;28;20052;-76
2022/03/31 11:19:08;;;;;;;6.25;3.22;;;;;;;6.88;86.10;99958.28;6274832;28;20053;-76
2022/03/31 11:22:19;;;;;;;6.32;2.35;;;;;;;6.75;83.86;99957.22;6274198;28;20048;-75
2022/03/31 11:25:21;;;;;;;3.67;1.90;;;;;;;6.82;84.54;99948.16;6275033;28;20515;-76
2022/03/31 11:28:23;;;;;;;6.10;1.98;;;;;;;6.94;82.35;99944.06;6274518;28;20041;-76
2022/03/31 11:31:24;;;;;;;7.07;2.45;;;;;;;7.01;84.93;99946.28;6274392;28;20420;-75
2022/03/31 11:34:28;;;;;;;3.80;2.20;;;;;;;7.05;77.89;99947.84;6282034;28;20044;-76
2022/03/31 11:37:30;;;;;;;3.65;1.88;;;;;;;7.10;75.71;99944.97;6299858;28;20045;-76
2022/03/31 11:40:33;;;;;;;5.30;2.25;;;;;;;7.33;79.29;99938.53;6298681;28;20423;-76
2022/03/31 11:43:34;;;;;;;2.40;1.23;;;;;;;7.62;76.52;99939.59;6280950;28;20045;-75
2022/03/31 11:46:40;;;;;;;3.60;2.00;;;;;;;7.83;75.59;99943.66;6277809;28;20052;-76
2022/03/31 11:49:44;;;;;;;2.40;1.20;;;;;;;8.09;72.28;99942.22;6280136;28;20234;-75
2022/03/31 11:52:48;;;;;;;2.90;1.73;;;;;;;7.89;72.88;99943.31;6278410;28;20127;-76
2022/03/31 11:55:59;;;;;;;2.78;1.75;;;;;;;7.53;71.04;99940.09;6274196;28;20153;-75
2022/03/31 11:59:03;;;;;;;4.72;1.42;;;;;;;7.64;71.63;99932.53;6274397;28;20052;-76
2022/03/31 12:02:13;;;;;;;2.95;1.70;;;;;;;7.61;72.40;99927.44;6271187;28;20108;-76
2022/03/31 12:05:15;;;;;;;5.65;2.20;;;;;;;7.41;72.46;99930.31;6281697;28;20045;-75
2022/03/31 12:08:18;;;;;;;4.45;2.00;;;;;;;7.31;69.52;99922.09;6283494;28;20044;-76
2022/03/31 12:11:20;;;;;;;3.90;1.75;;;;;;;7.62;75.42;99932.59;6289415;28;20052;-75
2022/03/31 12:14:22;;;;;;;3.05;1.42;;;;;;;7.54;69.53;99928.69;6298034;28;20048;-76
2022/03/31 12:17:24;;;;;;;3.63;1.65;;;;;;;7.50;74.39;99933.28;6298178;28;20048;-76
2022/03/31 12:20:27;;;;;;;3.35;1.65;;;;;;;7.76;73.89;99929.22;6298305;28;20052;-74
2022/03/31 12:23:29;;;;;;;5.97;2.08;;;;;;;7.84;70.84;99926.19;6291551;28;20056;-76
2022/03/31 12:26:30;;;;;;;4.47;2.33;;;;;;;7.82;69.27;99928.91;6273028;28;20416;-76
2022/03/31 12:29:34;;;;;;;4.40;2.13;;;;;;;7.95;67.01;99934.31;6272883;28;20056;-75
2022/03/31 12:32:46;;;;;;;4.78;1.65;;;;;;;8.14;68.65;99927.09;6272287;28;20040;-76
2022/03/31 12:36:01;;;;;;;4.95;2.15;;;;;;;7.93;68.29;99933.53;6274165;28;20052;-75
2022/03/31 12:39:05;;;;;;;2.40;1.73;;;;;;;8.15;67.86;99935.78;6269893;28;20132;-75
2022/03/31 12:42:09;;;;;;;4.25;1.70;;;;;;;8.05;64.77;99932.84;6272036;28;20056;-75
2022/03/31 12:45:15;;;;;;;3.83;1.73;;;;;;;8.11;67.96;99931.66;6272754;28;20056;-76
2022/03/31 12:48:16;;;;;;;3.75;1.50;;;;;;;8.29;66.77;99933.25;6272891;28;20053;-76
2022/03/31 12:51:19;;;;;;;2.97;1.55;;;;;;;8.39;65.77;99931.81;6272648;28;20393;-76
2022/03/31 12:54:25;;;;;;;3.85;1.52;;;;;;;8.44;64.30;99939.41;6273313;28;20052;-75
2022/03/31 12:57:28;;;;;;;6.97;2.20;;;;;;;8.27;66.66;99934.28;6272827;28;20448;-76
2022/03/31 13:00:32;;;;;;;3.72;1.35;;;;;;;8.49;67.16;99944.38;6271572;28;20148;-75
2022/03/31 13:03:33;;;;;;;3.33;1.67;;;;;;;8.62;67.28;99929.63;6272792;28;20072;-75
2022/03/31 13:06:40;;;;;;;2.60;1.23;;;;;;;8.28;64.59;99928.09;6272028;28;20064;-75
2022/03/31 13:09:42;;;;;;;2.05;1.52;;;;;;;8.35;66.71;99937.28;6271841;28;20374;-74
2022/03/31 13:12:44;;;;;;;4.25;1.45;;;;;;;8.25;65.28;99936.13;6271043;28;20048;-75
2022/03/31 13:15:46;;;;;;;3.38;1.63;;;;;;;8.03;66.65;99939.94;6272371;28;20057;-75
2022/03/31 13:18:47;;;;;;;2.40;1.67;;;;;;;7.79;65.25;99930.84;6271844;28;20045;-75
2022/03/31 13:21:50;;;;;;;3.25;1.35;;;;;;;7.69;63.28;99927.03;6271437;28;20061;-75
2022/03/31 13:24:52;;;;;;;1.63;1.30;;;;;;;7.76;63.05;99925.75;6271889;28;20224;-75
2022/03/31 13:27:54;;;;;;;2.30;1.20;;;;;;;7.69;65.83;99925.28;6271540;28;20045;-77
2022/03/31 13:30:55;;;;;;;3.28;1.58;;;;;;;7.68;66.67;99917.53;6271315;28;20052;-76
2022/03/31 13:33:56;;;;;;;2.33;1.33;;;;;;;7.47;65.65;99919.50;6260694;28;20049;-76
2022/03/31 13:37:01;;;;;;;1.70;1.50;;;;;;;7.47;66.55;99930.81;6269883;28;20045;-75
2022/03/31 13:40:07;;;;;;;2.63;1.65;;;;;;;7.47;64.17;99922.13;6271246;28;20056;-76
2022/03/31 13:43:09;;;;;;;2.50;1.23;;;;;;;7.17;62.87;99921.97;6271644;28;20048;-76
2022/03/31 13:46:10;;;;;;;3.10;1.40;;;;;;;7.27;63.92;99925.81;6271992;28;20048;-76
2022/03/31 13:49:12;;;;;;;3.17;1.65;;;;;;;7.38;64.52;99919.06;6271568;28;20049;-76
2022/03/31 13:52:15;;;;;;;2.63;1.27;;;;;;;7.45;60.17;99917.00;6272703;28;20515;-76
2022/03/31 13:55:16;;;;;;;3.22;1.58;;;;;;;7.47;62.78;99919.50;6274310;28;20048;-76
2022/03/31 14:01:38;;;;;;;6.80;1.80;;;;;;;7.49;64.55;99915.03;6282348;28;20057;-75
2022/03/31 14:04:40;;;;;;;1.65;1.02;;;;;;;7.55;61.07;99910.34;6271465;28;20060;-77
2022/03/31 14:07:43;;;;;;;1.90;1.35;;;;;;;7.63;60.83;99915.16;6276989;28;20064;-77
2022/03/31 14:10:45;;;;;;;5.57;1.13;;;;;;;7.61;61.29;99912.59;6264626;28;20409;-77
2022/03/31 14:13:47;;;;;;;1.58;1.08;;;;;;;7.37;59.72;99906.94;6260399;28;20041;-77
2022/03/31 14:16:48;;;;;;;2.00;1.27;;;;;;;7.32;59.18;99916.81;6280300;28;20040;-75
2022/03/31 14:19:50;;;;;;;3.88;1.25;;;;;;;7.41;57.87;99925.09;6274903;28;20041;-76
2022/03/31 14:22:52;;;;;;;4.57;1.13;;;;;;;7.22;59.96;99909.50;6270951;28;20053;-77
2022/03/31 14:25:58;;;;;;;2.45;0.90;;;;;;;7.18;58.32;99921.91;6269673;28;20051;-76
2022/03/31 14:28:59;;;;;;;3.65;1.40;;;;;;;7.03;59.99;99915.69;6271337;28;20063;-77
2022/03/31 14:32:01;;;;;;;1.33;0.90;;;;;;;6.99;59.63;99914.16;6270255;28;20057;-77
2022/03/31 14:35:02;;;;;;;1.90;0.88;;;;;;;6.80;61.19;99921.28;6270268;28;20493;-76